Time;durP1;ratioP1;P1;durP2;ratioP2;P2;SDS_P1;SDS_P2;PMS_P1;PMS_P2;Temp;Humidity;BMP_temperature;BMP_pressure;BME280_temperature;BME280_humidity;BME280_pressure;Samples;Min_cycle;Max_cycle;Signal;HPM_P1;HPM_P2
2023/03/01 00:02:19;;;;;;;9.02;2.63;;;;;;;;;;5092632;28;20040;-75
2023/03/01 00:04:50;;;;;;;13.40;2.80;;;;;;;;;;5095763;28;20055;-75
2023/03/01 00:07:21;;;;;;;9.38;2.22;;;;;;;;;;5089440;28;20406;-74
2023/03/01 00:09:52;;;;;;;12.40;2.70;;;;;;;;;;5087377;28;20044;-73
2023/03/01 00:12:22;;;;;;;8.48;2.88;;;;;;;;;;5087133;28;20055;-73
2023/03/01 00:14:53;;;;;;;8.40;2.67;;;;;;;;;;5085973;28;20515;-73
2023/03/01 00:17:23;;;;;;;12.73;2.58;;;;;;;;;;5086481;28;20052;-72
2023/03/01 00:19:53;;;;;;;13.35;2.88;;;;;;;;;;5069274;28;20048;-74
2023/03/01 00:22:23;;;;;;;8.77;2.60;;;;;;;;;;5086894;28;20048;-74
2023/03/01 00:24:54;;;;;;;7.35;2.60;;;;;;;;;;5074250;28;20039;-73
2023/03/01 00:27:25;;;;;;;8.27;2.20;;;;;;;;;;5092208;28;20058;-73
2023/03/01 00:29:55;;;;;;;9.45;2.30;;;;;;;;;;5068919;28;20058;-74
2023/03/01 00:32:26;;;;;;;10.23;2.67;;;;;;;;;;5068114;28;20063;-73
2023/03/01 00:34:57;;;;;;;6.25;2.38;;;;;;;;;;5068222;28;20052;-73
2023/03/01 00:37:29;;;;;;;5.03;2.30;;;;;;;;;;5087183;28;20048;-74
2023/03/01 00:39:59;;;;;;;8.50;2.30;;;;;;;;;;5086619;28;20063;-73
2023/03/01 00:42:29;;;;;;;8.73;2.80;;;;;;;;;;5086444;28;20048;-74
2023/03/01 00:45:00;;;;;;;6.95;2.15;;;;;;;;;;5086606;28;20052;-73
2023/03/01 00:47:31;;;;;;;7.75;2.28;;;;;;;;;;5086545;28;20044;-73
2023/03/01 00:50:01;;;;;;;9.07;2.60;;;;;;;;;;5086768;28;20052;-73
2023/03/01 00:52:31;;;;;;;7.28;2.60;;;;;;;;;;5068018;28;20048;-73
2023/03/01 00:55:02;;;;;;;5.47;2.28;;;;;;;;;;5068048;28;20055;-74
2023/03/01 00:57:33;;;;;;;9.00;2.80;;;;;;;;;;5086815;28;20044;-73
2023/03/01 01:00:06;;;;;;;6.68;2.20;;;;;;;;;;5087035;28;20048;-74
2023/03/01 01:02:36;;;;;;;14.77;2.10;;;;;;;;;;5086085;28;20410;-73
2023/03/01 01:05:07;;;;;;;11.43;2.42;;;;;;;;;;5086398;28;20075;-74
2023/03/01 01:07:39;;;;;;;7.90;2.00;;;;;;;;;;5067182;28;20056;-73
2023/03/01 01:10:16;;;;;;;9.35;2.20;;;;;;;;;;5086493;28;20367;-73
2023/03/01 01:12:48;;;;;;;5.63;2.40;;;;;;;;;;5069788;28;20048;-74
2023/03/01 01:15:19;;;;;;;7.60;2.38;;;;;;;;;;5085945;28;20463;-76
2023/03/01 01:17:50;;;;;;;7.63;2.45;;;;;;;;;;5067015;28;20048;-74
2023/03/01 01:20:21;;;;;;;11.50;2.45;;;;;;;;;;5086548;28;20055;-73
2023/03/01 01:22:52;;;;;;;13.07;2.38;;;;;;;;;;5086439;28;20051;-73
2023/03/01 01:25:24;;;;;;;5.80;2.50;;;;;;;;;;5052068;28;20059;-73
2023/03/01 01:27:56;;;;;;;10.00;2.00;;;;;;;;;;5067653;28;20056;-74
2023/03/01 01:30:27;;;;;;;6.35;2.30;;;;;;;;;;5067184;28;20052;-73
2023/03/01 01:32:58;;;;;;;4.15;2.08;;;;;;;;;;5086373;28;20491;-73
2023/03/01 01:35:29;;;;;;;7.68;2.10;;;;;;;;;;5086006;28;20048;-73
2023/03/01 01:38:00;;;;;;;4.65;2.03;;;;;;;;;;5086201;28;20466;-73
2023/03/01 01:40:32;;;;;;;8.23;2.40;;;;;;;;;;5068934;28;20040;-73
2023/03/01 01:43:02;;;;;;;5.20;2.15;;;;;;;;;;5066202;28;20430;-73
2023/03/01 01:45:35;;;;;;;4.53;2.40;;;;;;;;;;5088245;28;20047;-73
2023/03/01 01:48:15;;;;;;;5.30;2.42;;;;;;;;;;5071330;28;20056;-74
2023/03/01 01:50:57;;;;;;;9.13;2.38;;;;;;;;;;5089685;28;20518;-74
2023/03/01 01:53:30;;;;;;;5.57;2.50;;;;;;;;;;5089223;28;20131;-73
2023/03/01 01:56:02;;;;;;;9.43;2.72;;;;;;;;;;5089285;28;20482;-73
2023/03/01 01:58:35;;;;;;;5.88;2.15;;;;;;;;;;5070969;28;20138;-73
2023/03/01 02:01:06;;;;;;;8.52;2.42;;;;;;;;;;5092619;28;20036;-73
2023/03/01 02:03:41;;;;;;;7.30;2.25;;;;;;;;;;5098558;28;20043;-74
2023/03/01 02:06:30;;;;;;;10.45;2.70;;;;;;;;;;5098601;28;20047;-77
2023/03/01 02:09:08;;;;;;;13.00;2.80;;;;;;;;;;5081600;28;20043;-75
2023/03/01 02:11:40;;;;;;;7.30;2.70;;;;;;;;;;5100243;28;20043;-73
2023/03/01 02:14:11;;;;;;;9.35;2.63;;;;;;;;;;5098344;28;20039;-74
2023/03/01 02:16:42;;;;;;;7.57;2.63;;;;;;;;;;5079124;28;20052;-73
2023/03/01 02:19:35;;;;;;;9.15;2.65;;;;;;;;;;5082527;28;20056;-74
2023/03/01 02:22:24;;;;;;;10.18;2.72;;;;;;;;;;5100153;28;20035;-75
2023/03/01 02:25:01;;;;;;;6.72;2.72;;;;;;;;;;5099060;28;20052;-73
2023/03/01 02:27:46;;;;;;;9.00;2.97;;;;;;;;;;5097880;28;20047;-73
2023/03/01 02:30:19;;;;;;;6.45;2.92;;;;;;;;;;5099721;28;20051;-73
2023/03/01 02:32:54;;;;;;;13.52;3.47;;;;;;;;;;5094450;28;20047;-73
2023/03/01 02:35:24;;;;;;;3.30;2.88;;;;;;;;;;5088484;28;20044;-73
2023/03/01 02:37:56;;;;;;;10.00;3.63;;;;;;;;;;5089217;28;20048;-72
2023/03/01 02:40:34;;;;;;;11.07;3.42;;;;;;;;;;5088186;28;20056;-73
2023/03/01 02:43:08;;;;;;;11.45;3.67;;;;;;;;;;5068522;28;20538;-73
2023/03/01 02:45:49;;;;;;;6.00;3.10;;;;;;;;;;5054333;28;20060;-73
2023/03/01 02:48:20;;;;;;;8.55;3.83;;;;;;;;;;5088782;28;20044;-73
2023/03/01 02:51:20;;;;;;;8.50;3.60;;;;;;;;;;5088499;28;20059;-73
2023/03/01 02:54:18;;;;;;;7.47;3.05;;;;;;;;;;5087893;28;20040;-73
2023/03/01 02:56:49;;;;;;;10.52;3.58;;;;;;;;;;5069014;28;20059;-73
2023/03/01 02:59:24;;;;;;;12.80;4.25;;;;;;;;;;5070191;28;20043;-72
2023/03/01 03:01:56;;;;;;;10.35;4.25;;;;;;;;;;5070138;28;20059;-72
2023/03/01 03:04:26;;;;;;;7.93;4.43;;;;;;;;;;5088504;28;20059;-73
2023/03/01 03:06:56;;;;;;;10.82;4.10;;;;;;;;;;5069261;28;20419;-72
2023/03/01 03:09:27;;;;;;;7.43;3.88;;;;;;;;;;5069965;28;20060;-72
2023/03/01 03:11:57;;;;;;;8.30;3.88;;;;;;;;;;5088097;28;20380;-72
2023/03/01 03:14:28;;;;;;;5.60;4.22;;;;;;;;;;5070058;28;20422;-73
2023/03/01 03:16:58;;;;;;;10.32;4.07;;;;;;;;;;5069234;28;20780;-73
2023/03/01 03:19:28;;;;;;;7.32;4.25;;;;;;;;;;5069542;28;20059;-73
2023/03/01 03:21:59;;;;;;;7.80;4.10;;;;;;;;;;5087975;28;20040;-73
2023/03/01 03:24:37;;;;;;;10.95;4.60;;;;;;;;;;5088473;28;20529;-73
2023/03/01 03:27:08;;;;;;;7.47;4.28;;;;;;;;;;5087849;28;20055;-73
2023/03/01 03:29:38;;;;;;;10.27;4.50;;;;;;;;;;5088295;28;20063;-72
2023/03/01 03:32:09;;;;;;;8.20;4.03;;;;;;;;;;5087735;28;20036;-72
2023/03/01 03:34:39;;;;;;;10.18;4.40;;;;;;;;;;5088179;28;20411;-73
2023/03/01 03:38:01;;;;;;;6.97;4.40;;;;;;;;;;5087246;28;20059;-73
2023/03/01 03:40:01;;;;;;;15.32;4.60;;;;;;;;;;5087379;28;20044;-73
2023/03/01 03:42:31;;;;;;;5.72;3.80;;;;;;;;;;5087550;28;20040;-72
2023/03/01 03:45:01;;;;;;;12.02;4.15;;;;;;;;;;5087610;28;20051;-73
2023/03/01 03:47:31;;;;;;;11.00;4.75;;;;;;;;;;5068366;28;20434;-73
2023/03/01 03:50:03;;;;;;;10.75;4.40;;;;;;;;;;5086714;28;20581;-72
2023/03/01 03:52:33;;;;;;;7.47;4.80;;;;;;;;;;5070256;28;20048;-73
2023/03/01 03:55:09;;;;;;;7.60;4.60;;;;;;;;;;5087843;28;20051;-73
2023/03/01 03:57:41;;;;;;;9.55;4.05;;;;;;;;;;5087592;28;20041;-73
2023/03/01 04:00:12;;;;;;;7.88;4.43;;;;;;;;;;5087197;28;20067;-73
2023/03/01 04:02:43;;;;;;;10.27;4.45;;;;;;;;;;5087196;28;20059;-72
2023/03/01 04:05:15;;;;;;;12.25;4.80;;;;;;;;;;5087233;28;20063;-72
2023/03/01 04:07:46;;;;;;;10.40;4.20;;;;;;;;;;5086999;28;20066;-73
2023/03/01 04:10:19;;;;;;;12.45;4.75;;;;;;;;;;5087268;28;20601;-73
2023/03/01 04:12:49;;;;;;;11.70;4.63;;;;;;;;;;5087748;28;20044;-73
2023/03/01 04:15:19;;;;;;;11.05;4.75;;;;;;;;;;5087101;28;20419;-73
2023/03/01 04:17:49;;;;;;;13.68;4.35;;;;;;;;;;5086957;28;20052;-74
2023/03/01 04:20:25;;;;;;;9.50;4.45;;;;;;;;;;5087782;28;20059;-73
2023/03/01 04:23:10;;;;;;;10.70;4.30;;;;;;;;;;5087259;28;20048;-73
2023/03/01 04:25:56;;;;;;;12.13;4.13;;;;;;;;;;5086440;28;20059;-72
2023/03/01 04:28:36;;;;;;;10.23;4.20;;;;;;;;;;5087328;28;20043;-74
2023/03/01 04:31:13;;;;;;;12.77;4.20;;;;;;;;;;5087066;28;20051;-73
2023/03/01 04:33:47;;;;;;;15.77;4.43;;;;;;;;;;5086809;28;20052;-73
2023/03/01 04:36:18;;;;;;;9.20;4.50;;;;;;;;;;5087016;28;20044;-73
2023/03/01 04:38:49;;;;;;;9.57;4.97;;;;;;;;;;5086241;28;20051;-73
2023/03/01 04:41:22;;;;;;;11.65;5.00;;;;;;;;;;5086838;28;20048;-73
2023/03/01 04:43:52;;;;;;;15.75;5.18;;;;;;;;;;5085565;28;20055;-73
2023/03/01 04:46:22;;;;;;;9.80;4.65;;;;;;;;;;5086720;28;20040;-73
2023/03/01 04:48:52;;;;;;;9.02;5.07;;;;;;;;;;5086714;28;20040;-73
2023/03/01 04:51:23;;;;;;;12.98;4.85;;;;;;;;;;5086353;28;20056;-73
2023/03/01 04:53:55;;;;;;;10.93;5.35;;;;;;;;;;5086582;28;20044;-73
2023/03/01 04:56:25;;;;;;;6.78;5.22;;;;;;;;;;5086584;28;20044;-72
2023/03/01 04:58:56;;;;;;;10.90;4.60;;;;;;;;;;5086492;28;20055;-73
2023/03/01 05:01:27;;;;;;;8.15;5.15;;;;;;;;;;5086768;28;20056;-73
2023/03/01 05:04:02;;;;;;;11.85;5.53;;;;;;;;;;5086854;28;20051;-72
2023/03/01 05:06:34;;;;;;;8.90;5.45;;;;;;;;;;5086457;28;20055;-73
2023/03/01 05:09:04;;;;;;;12.65;5.85;;;;;;;;;;5086662;28;20484;-72
2023/03/01 05:11:35;;;;;;;11.40;5.63;;;;;;;;;;5086708;28;20040;-72
2023/03/01 05:14:08;;;;;;;11.95;5.63;;;;;;;;;;5086876;28;20044;-73
2023/03/01 05:16:38;;;;;;;11.60;5.53;;;;;;;;;;5086437;28;20102;-73
2023/03/01 05:19:22;;;;;;;14.00;5.40;;;;;;;;;;5087854;28;20044;-73
2023/03/01 05:22:04;;;;;;;11.60;5.90;;;;;;;;;;5090019;28;20055;-72
2023/03/01 05:24:38;;;;;;;9.25;5.85;;;;;;;;;;5090592;28;20055;-72
2023/03/01 05:27:08;;;;;;;10.57;5.68;;;;;;;;;;5090068;28;20048;-73
2023/03/01 05:29:39;;;;;;;7.75;5.55;;;;;;;;;;5090069;28;20048;-72
2023/03/01 05:32:14;;;;;;;10.18;5.90;;;;;;;;;;5089941;28;20048;-73
2023/03/01 05:34:46;;;;;;;9.25;5.65;;;;;;;;;;5090247;28;20036;-72
2023/03/01 05:49:20;;;;;;;13.90;5.25;;;;;;;;;;5114222;28;20047;-72
2023/03/01 05:51:53;;;;;;;12.20;5.65;;;;;;;;;;5110317;28;20054;-73
2023/03/01 05:54:23;;;;;;;8.82;5.43;;;;;;;;;;5110758;28;20047;-73
2023/03/01 05:56:53;;;;;;;10.63;4.85;;;;;;;;;;5110135;28;20046;-73
2023/03/01 05:59:23;;;;;;;10.45;5.85;;;;;;;;;;5109385;28;20054;-72
2023/03/01 06:01:53;;;;;;;8.07;5.68;;;;;;;;;;5109804;28;20406;-72
2023/03/01 06:04:24;;;;;;;11.60;5.72;;;;;;;;;;5109766;28;20411;-72
2023/03/01 06:06:54;;;;;;;9.85;5.68;;;;;;;;;;5109482;28;20494;-73
2023/03/01 06:09:25;;;;;;;10.63;5.38;;;;;;;;;;5109388;28;20051;-72
2023/03/01 06:11:57;;;;;;;11.82;5.70;;;;;;;;;;5109916;28;20518;-73
2023/03/01 06:14:27;;;;;;;9.73;5.70;;;;;;;;;;5109629;28;20044;-72
2023/03/01 06:16:58;;;;;;;15.30;5.63;;;;;;;;;;5092192;28;20044;-72
2023/03/01 06:19:28;;;;;;;11.63;5.43;;;;;;;;;;5090722;28;20054;-72
2023/03/01 06:21:58;;;;;;;9.13;5.85;;;;;;;;;;5090586;28;20055;-73
2023/03/01 06:24:30;;;;;;;11.23;6.15;;;;;;;;;;5109387;28;20047;-72
2023/03/01 06:27:01;;;;;;;10.80;5.70;;;;;;;;;;5109882;28;20054;-73
2023/03/01 06:29:31;;;;;;;10.25;5.80;;;;;;;;;;5109541;28;20040;-72
2023/03/01 06:32:04;;;;;;;7.85;5.53;;;;;;;;;;5090353;28;20059;-72
2023/03/01 06:34:34;;;;;;;9.15;5.93;;;;;;;;;;5090572;28;20043;-72
2023/03/01 06:37:05;;;;;;;9.30;5.50;;;;;;;;;;5109073;28;20048;-73
2023/03/01 06:39:34;;;;;;;8.50;5.75;;;;;;;;;;5109209;28;20050;-73
2023/03/01 06:42:05;;;;;;;14.20;5.75;;;;;;;;;;5108194;28;20047;-73
2023/03/01 06:44:38;;;;;;;15.55;5.55;;;;;;;;;;5109096;28;20047;-72
2023/03/01 06:47:09;;;;;;;12.77;6.05;;;;;;;;;;5108840;28;20051;-73
2023/03/01 06:49:39;;;;;;;7.63;5.43;;;;;;;;;;5109150;28;20044;-72
2023/03/01 06:52:09;;;;;;;12.32;6.30;;;;;;;;;;5108772;28;20055;-72
2023/03/01 06:54:39;;;;;;;11.55;5.97;;;;;;;;;;5109079;28;20050;-72
2023/03/01 06:57:10;;;;;;;11.15;5.70;;;;;;;;;;5109446;28;20043;-73
2023/03/01 06:59:40;;;;;;;13.10;5.90;;;;;;;;;;5090874;28;20044;-72
2023/03/01 07:02:14;;;;;;;19.13;5.97;;;;;;;;;;5108511;28;20495;-72
2023/03/01 07:04:45;;;;;;;10.20;5.80;;;;;;;;;;5108776;28;20434;-73
2023/03/01 07:07:17;;;;;;;9.18;5.82;;;;;;;;;;5108473;28;20054;-73
2023/03/01 07:09:49;;;;;;;8.80;5.72;;;;;;;;;;5108451;28;20055;-74
2023/03/01 07:12:19;;;;;;;9.95;6.00;;;;;;;;;;5108428;28;20043;-74
2023/03/01 07:14:49;;;;;;;8.50;5.75;;;;;;;;;;5108436;28;20581;-72
2023/03/01 07:17:20;;;;;;;11.45;5.95;;;;;;;;;;5108712;28;20043;-72
2023/03/01 07:19:50;;;;;;;10.07;5.93;;;;;;;;;;5108368;28;20044;-72
2023/03/01 07:22:20;;;;;;;9.68;5.90;;;;;;;;;;5108190;28;20050;-73
2023/03/01 07:24:51;;;;;;;13.13;6.22;;;;;;;;;;5108938;28;20051;-72
2023/03/01 07:27:21;;;;;;;10.68;6.40;;;;;;;;;;5108730;28;20048;-72
2023/03/01 07:29:52;;;;;;;13.50;5.70;;;;;;;;;;5089625;28;20069;-72
2023/03/01 07:32:23;;;;;;;13.20;6.47;;;;;;;;;;5108384;28;20525;-72
2023/03/01 07:34:53;;;;;;;12.00;6.47;;;;;;;;;;5108186;28;20047;-72
2023/03/01 07:37:24;;;;;;;10.35;5.90;;;;;;;;;;5107778;28;20537;-73
2023/03/01 07:39:55;;;;;;;11.15;5.93;;;;;;;;;;5106957;28;20047;-72
2023/03/01 07:42:27;;;;;;;9.23;5.68;;;;;;;;;;5107046;28;20051;-72
2023/03/01 07:44:57;;;;;;;8.85;6.10;;;;;;;;;;5108426;28;20051;-72
2023/03/01 07:47:27;;;;;;;10.20;5.80;;;;;;;;;;5107738;28;20054;-72
2023/03/01 07:49:58;;;;;;;9.98;5.40;;;;;;;;;;5107526;28;20047;-72
2023/03/01 07:52:29;;;;;;;11.48;5.47;;;;;;;;;;5108793;28;20047;-72
2023/03/01 07:54:59;;;;;;;13.05;6.22;;;;;;;;;;5108720;28;20052;-73
2023/03/01 07:57:30;;;;;;;13.50;6.40;;;;;;;;;;5107574;28;20383;-72
2023/03/01 08:00:01;;;;;;;16.25;6.05;;;;;;;;;;5107526;28;20052;-72
2023/03/01 08:02:41;;;;;;;8.60;5.47;;;;;;;;;;5112318;28;20433;-73
2023/03/01 08:05:12;;;;;;;9.98;5.47;;;;;;;;;;5107485;28;20067;-73
2023/03/01 08:07:42;;;;;;;12.63;6.80;;;;;;;;;;5106414;28;20050;-73
2023/03/01 08:10:13;;;;;;;11.38;6.22;;;;;;;;;;5107294;28;20418;-72
2023/03/01 08:12:43;;;;;;;10.98;6.13;;;;;;;;;;5107260;28;20048;-72
2023/03/01 08:15:14;;;;;;;11.93;5.68;;;;;;;;;;5089090;28;20531;-72
2023/03/01 08:17:43;;;;;;;7.50;6.00;;;;;;;;;;5107590;28;20043;-72
2023/03/01 08:20:14;;;;;;;16.27;6.40;;;;;;;;;;5107778;28;20050;-73
2023/03/01 08:22:48;;;;;;;12.68;6.30;;;;;;;;;;5108148;28;20048;-73
2023/03/01 08:25:17;;;;;;;10.68;6.20;;;;;;;;;;5107224;28;20047;-73
2023/03/01 08:27:47;;;;;;;10.57;6.00;;;;;;;;;;5107430;28;20414;-72
2023/03/01 08:30:18;;;;;;;12.20;5.93;;;;;;;;;;5107036;28;20051;-73
2023/03/01 08:32:50;;;;;;;7.38;5.43;;;;;;;;;;5107181;28;20054;-72
2023/03/01 08:35:21;;;;;;;9.45;5.40;;;;;;;;;;5107162;28;20051;-72
2023/03/01 08:37:52;;;;;;;10.45;5.97;;;;;;;;;;5107127;28;20521;-73
2023/03/01 08:40:23;;;;;;;18.27;5.95;;;;;;;;;;5107312;28;20051;-73
2023/03/01 08:42:55;;;;;;;9.88;6.20;;;;;;;;;;5089065;28;20045;-72
2023/03/01 08:45:26;;;;;;;12.32;6.38;;;;;;;;;;5106936;28;20050;-73
2023/03/01 08:47:56;;;;;;;9.88;6.10;;;;;;;;;;5107356;28;20051;-73
2023/03/01 08:50:27;;;;;;;14.15;6.40;;;;;;;;;;5107444;28;20055;-72
2023/03/01 08:52:57;;;;;;;12.80;6.00;;;;;;;;;;5107028;28;20794;-72
2023/03/01 08:55:28;;;;;;;11.68;6.03;;;;;;;;;;5110685;28;20423;-73
2023/03/01 08:58:00;;;;;;;11.63;5.60;;;;;;;;;;5110856;28;20052;-72
2023/03/01 09:00:30;;;;;;;9.02;5.22;;;;;;;;;;5110891;28;20074;-73
2023/03/01 09:03:02;;;;;;;11.40;5.72;;;;;;;;;;5111139;28;20051;-73
2023/03/01 09:05:33;;;;;;;9.45;5.25;;;;;;;;;;5110960;28;20071;-73
2023/03/01 09:08:04;;;;;;;12.30;5.53;;;;;;;;;;5110594;28;20517;-73
2023/03/01 09:10:39;;;;;;;9.05;4.95;;;;;;;;;;5111331;28;20044;-73
2023/03/01 09:13:10;;;;;;;8.63;5.18;;;;;;;;;;5111028;28;20501;-72
2023/03/01 09:15:40;;;;;;;15.95;4.88;;;;;;;;;;5111453;28;20040;-73
2023/03/01 09:18:11;;;;;;;9.52;4.85;;;;;;;;;;5109718;28;20055;-73
2023/03/01 09:20:42;;;;;;;7.55;5.55;;;;;;;;;;5110888;28;20058;-73
2023/03/01 09:23:12;;;;;;;13.23;5.40;;;;;;;;;;5110586;28;20043;-73
2023/03/01 09:25:42;;;;;;;13.60;5.57;;;;;;;;;;5091436;28;20062;-72
2023/03/01 09:28:13;;;;;;;8.25;4.65;;;;;;;;;;5110409;28;20477;-72
2023/03/01 09:31:02;;;;;;;11.40;5.03;;;;;;;;;;5110664;28;20886;-71
2023/03/01 09:33:33;;;;;;;5.97;4.60;;;;;;;;;;5110670;28;20079;-73
2023/03/01 09:36:06;;;;;;;8.02;5.07;;;;;;;;;;5110479;28;20048;-73
2023/03/01 09:38:37;;;;;;;7.80;4.88;;;;;;;;;;5110147;28;20039;-72
2023/03/01 09:41:20;;;;;;;6.57;5.00;;;;;;;;;;5110638;28;20498;-73
2023/03/01 09:43:57;;;;;;;11.77;4.68;;;;;;;;;;5110483;28;20043;-73
2023/03/01 09:46:29;;;;;;;9.73;4.32;;;;;;;;;;5109901;28;20502;-72
2023/03/01 09:49:04;;;;;;;8.00;4.68;;;;;;;;;;5110122;28;20517;-77
2023/03/01 09:51:36;;;;;;;8.35;4.45;;;;;;;;;;5110040;28;20506;-72
2023/03/01 09:54:10;;;;;;;7.13;4.50;;;;;;;;;;5109889;28;20430;-74
2023/03/01 09:56:49;;;;;;;6.45;4.25;;;;;;;;;;5110017;28;20437;-76
2023/03/01 09:59:38;;;;;;;7.93;4.55;;;;;;;;;;5109706;28;20044;-73
2023/03/01 10:02:27;;;;;;;7.85;4.30;;;;;;;;;;5110195;28;20044;-73
2023/03/01 10:05:16;;;;;;;;;;;;;;;;;;5110186;28;20328;-72
2023/03/01 10:08:02;;;;;;;7.03;3.63;;;;;;;;;;5109973;28;20279;-78
2023/03/01 10:10:43;;;;;;;7.15;3.78;;;;;;;;;;5090448;28;20051;-72
2023/03/01 10:13:25;;;;;;;13.48;4.70;;;;;;;;;;5109569;28;20050;-74
2023/03/01 10:16:10;;;;;;;14.55;4.60;;;;;;;;;;5109796;28;20043;-72
2023/03/01 10:18:43;;;;;;;13.93;6.28;;;;;;;;;;5109879;28;20040;-74
2023/03/01 10:21:20;;;;;;;16.13;6.03;;;;;;;;;;5109794;28;20040;-73
2023/03/01 10:23:53;;;;;;;21.67;19.35;;;;;;;;;;5091905;28;20058;-74
2023/03/01 10:26:26;;;;;;;8.82;5.93;;;;;;;;;;5109445;28;20035;-73
2023/03/01 10:29:07;;;;;;;16.98;5.50;;;;;;;;;;5109560;28;20054;-73
2023/03/01 10:31:51;;;;;;;7.65;4.55;;;;;;;;;;5110327;28;20052;-73
2023/03/01 10:34:31;;;;;;;14.02;4.47;;;;;;;;;;5109686;28;20043;-73
2023/03/01 10:37:27;;;;;;;7.93;3.28;;;;;;;;;;5098949;28;20055;-74
2023/03/01 10:39:59;;;;;;;15.60;4.10;;;;;;;;;;5088730;28;20411;-72
2023/03/01 10:42:32;;;;;;;11.65;3.63;;;;;;;;;;5088861;28;20084;-74
2023/03/01 10:45:31;;;;;;;8.90;3.60;;;;;;;;;;5088750;28;20521;-74
2023/03/01 10:48:04;;;;;;;13.20;3.33;;;;;;;;;;5089037;28;20035;-77
2023/03/01 10:50:36;;;;;;;13.18;3.47;;;;;;;;;;5088706;28;20507;-73
2023/03/01 10:53:26;;;;;;;9.98;3.05;;;;;;;;;;5069854;28;20533;-74
2023/03/01 10:56:01;;;;;;;10.40;3.53;;;;;;;;;;5070087;28;20044;-73
2023/03/01 10:58:32;;;;;;;9.10;3.53;;;;;;;;;;5088900;28;20040;-73
2023/03/01 11:01:24;;;;;;;6.13;2.85;;;;;;;;;;5088674;28;20491;-74
2023/03/01 11:04:17;;;;;;;15.73;3.63;;;;;;;;;;5088062;28;20051;-73
2023/03/01 11:06:59;;;;;;;16.45;4.30;;;;;;;;;;5087734;28;20036;-74
2023/03/01 11:09:39;;;;;;;10.13;3.03;;;;;;;;;;5087823;28;20051;-75
2023/03/01 11:12:17;;;;;;;13.75;3.53;;;;;;;;;;5088623;28;20052;-74
2023/03/01 11:14:53;;;;;;;6.38;2.72;;;;;;;;;;5088617;28;20056;-77
2023/03/01 11:17:32;;;;;;;4.45;2.67;;;;;;;;;;5088127;28;20048;-75
2023/03/01 11:20:24;;;;;;;6.95;2.72;;;;;;;;;;5086638;28;20055;-75
2023/03/01 11:23:13;;;;;;;11.63;3.40;;;;;;;;;;5069804;28;20055;-75
2023/03/01 11:25:50;;;;;;;7.47;2.65;;;;;;;;;;5088324;28;20120;-74
2023/03/01 11:28:22;;;;;;;13.75;3.33;;;;;;;;;;5087741;28;20047;-76
2023/03/01 11:31:14;;;;;;;11.75;3.08;;;;;;;;;;5087957;28;20402;-77
2023/03/01 11:33:52;;;;;;;7.63;2.78;;;;;;;;;;5086911;28;20513;-74
2023/03/01 11:36:58;;;;;;;6.25;3.10;;;;;;;;;;5086703;28;20513;-74
2023/03/01 11:39:52;;;;;;;16.23;3.25;;;;;;;;;;5035868;28;20055;-75
2023/03/01 11:42:38;;;;;;;4.53;3.13;;;;;;;;;;5087883;28;20047;-74
2023/03/01 11:45:12;;;;;;;11.70;2.65;;;;;;;;;;5087808;28;20048;-73
2023/03/01 11:48:17;;;;;;;6.18;2.65;;;;;;;;;;5088348;28;20056;-73
2023/03/01 11:50:50;;;;;;;8.60;3.25;;;;;;;;;;5087027;28;20060;-73
2023/03/01 11:53:48;;;;;;;6.45;2.53;;;;;;;;;;5087337;28;20044;-72
2023/03/01 11:57:12;;;;;;;7.50;2.88;;;;;;;;;;5087247;28;20044;-72
2023/03/01 12:00:07;;;;;;;10.82;2.95;;;;;;;;;;4985257;28;20054;-73
2023/03/01 12:02:49;;;;;;;6.63;3.60;;;;;;;;;;5068673;28;20059;-72
2023/03/01 12:05:49;;;;;;;8.27;3.08;;;;;;;;;;5087708;28;20044;-73
2023/03/01 12:08:38;;;;;;;7.45;3.17;;;;;;;;;;5085018;28;20060;-73
2023/03/01 12:11:15;;;;;;;7.55;2.85;;;;;;;;;;5087701;28;20526;-72
2023/03/01 12:14:14;;;;;;;6.47;3.10;;;;;;;;;;5087400;28;20040;-73
2023/03/01 12:17:13;;;;;;;5.45;3.03;;;;;;;;;;5090492;28;20043;-73
2023/03/01 12:20:16;;;;;;;7.55;3.17;;;;;;;;;;5107309;28;20394;-73
2023/03/01 12:23:03;;;;;;;6.57;2.17;;;;;;;;;;5106550;28;20410;-73
2023/03/01 12:25:55;;;;;;;7.22;2.33;;;;;;;;;;5107350;28;20040;-75
2023/03/01 12:28:52;;;;;;;5.95;2.72;;;;;;;;;;5106696;28;20058;-73
2023/03/01 12:31:37;;;;;;;5.82;2.38;;;;;;;;;;5107120;28;20051;-73
2023/03/01 12:34:56;;;;;;;7.95;2.80;;;;;;;;;;5107479;28;20114;-74
2023/03/01 12:37:48;;;;;;;6.85;2.53;;;;;;;;;;5085643;28;20495;-74
2023/03/01 12:40:43;;;;;;;6.30;3.45;;;;;;;;;;5107068;28;20050;-73
2023/03/01 12:43:40;;;;;;;6.22;2.42;;;;;;;;;;5090990;28;20074;-74
2023/03/01 12:46:41;;;;;;;8.27;2.42;;;;;;;;;;5106526;28;20043;-73
2023/03/01 12:49:26;;;;;;;4.70;2.30;;;;;;;;;;5106790;28;20545;-74
2023/03/01 12:52:09;;;;;;;6.60;2.08;;;;;;;;;;5107176;28;20048;-73
2023/03/01 12:54:39;;;;;;;3.00;1.85;;;;;;;;;;5107735;28;20047;-73
2023/03/01 12:57:18;;;;;;;4.38;2.03;;;;;;;;;;5106970;28;20805;-74
2023/03/01 13:00:26;;;;;;;3.47;1.90;;;;;;;;;;5106822;28;20044;-74
2023/03/01 13:03:13;;;;;;;4.38;1.83;;;;;;;;;;5107293;28;20040;-74
2023/03/01 13:05:55;;;;;;;;;;;;;;;;;;5106745;28;20537;-74
2023/03/01 13:08:49;;;;;;;4.15;1.80;;;;;;;;;;5106294;28;19923;-75
2023/03/01 13:11:23;;;;;;;6.28;2.20;;;;;;;;;;5106713;28;20043;-75
2023/03/01 13:14:25;;;;;;;5.82;1.80;;;;;;;;;;5106476;28;20075;-75
2023/03/01 13:16:56;;;;;;;4.10;1.70;;;;;;;;;;5106335;28;20044;-75
2023/03/01 13:19:29;;;;;;;3.38;1.70;;;;;;;;;;5107173;28;20043;-74
2023/03/01 13:22:00;;;;;;;4.57;1.35;;;;;;;;;;5107001;28;20055;-74
2023/03/01 13:24:38;;;;;;;2.90;1.48;;;;;;;;;;5087767;28;20066;-75
2023/03/01 13:27:22;;;;;;;4.82;1.50;;;;;;;;;;5088732;28;20387;-75
2023/03/01 13:29:56;;;;;;;4.78;1.98;;;;;;;;;;5107011;28;20052;-74
2023/03/01 13:32:34;;;;;;;2.70;1.50;;;;;;;;;;5107102;28;20039;-74
2023/03/01 13:35:16;;;;;;;3.05;1.42;;;;;;;;;;5107166;28;20402;-75
2023/03/01 13:37:47;;;;;;;8.10;1.52;;;;;;;;;;5106187;28;20052;-74
2023/03/01 13:40:22;;;;;;;5.28;1.95;;;;;;;;;;5108223;28;20070;-74
2023/03/01 13:42:54;;;;;;;4.55;1.70;;;;;;;;;;5111026;28;20040;-74
2023/03/01 13:45:36;;;;;;;;;;;;;;;;;;5111161;28;20050;-74
2023/03/01 13:48:25;;;;;;;4.22;1.60;;;;;;;;;;5109906;28;20317;-74
2023/03/01 13:51:02;;;;;;;9.45;1.80;;;;;;;;;;5109709;28;20055;-74
2023/03/01 13:53:52;;;;;;;4.25;1.52;;;;;;;;;;5091600;28;20055;-74
2023/03/01 13:56:28;;;;;;;5.78;1.48;;;;;;;;;;5110532;28;20039;-74
2023/03/01 13:59:07;;;;;;;4.50;1.58;;;;;;;;;;5110169;28;20403;-74
2023/03/01 14:01:38;;;;;;;4.35;1.60;;;;;;;;;;5110103;28;20040;-74
2023/03/01 14:04:25;;;;;;;3.15;1.42;;;;;;;;;;5109874;28;20059;-74
2023/03/01 14:07:11;;;;;;;6.43;1.73;;;;;;;;;;5109962;28;20769;-74
2023/03/01 14:09:47;;;;;;;5.22;1.98;;;;;;;;;;5110109;28;20047;-73
2023/03/01 14:12:37;;;;;;;6.22;2.10;;;;;;;;;;5109502;28;20047;-75
2023/03/01 14:15:21;;;;;;;5.93;2.17;;;;;;;;;;5109328;28;20395;-75
2023/03/01 14:18:21;;;;;;;7.00;2.25;;;;;;;;;;5109681;28;20036;-74
2023/03/01 14:20:52;;;;;;;8.73;1.90;;;;;;;;;;5109734;28;20113;-74
2023/03/01 14:23:24;;;;;;;4.28;1.70;;;;;;;;;;5110012;28;20042;-74
2023/03/01 14:25:58;;;;;;;6.03;1.77;;;;;;;;;;5109926;28;20039;-73
2023/03/01 14:28:33;;;;;;;6.80;1.67;;;;;;;;;;5109550;28;20058;-74
2023/03/01 14:31:24;;;;;;;3.60;1.92;;;;;;;;;;5109371;28;20059;-74
2023/03/01 14:33:56;;;;;;;4.85;1.90;;;;;;;;;;5108838;28;20043;-73
2023/03/01 14:36:29;;;;;;;3.83;1.85;;;;;;;;;;5109576;28;20051;-74
2023/03/01 14:39:04;;;;;;;3.30;1.92;;;;;;;;;;5109638;28;20044;-74
2023/03/01 14:41:36;;;;;;;3.83;1.92;;;;;;;;;;5109465;28;20035;-73
2023/03/01 14:44:15;;;;;;;3.63;1.58;;;;;;;;;;5090680;28;20062;-74
2023/03/01 14:46:47;;;;;;;2.90;1.67;;;;;;;;;;5109082;28;20043;-74
2023/03/01 14:49:22;;;;;;;7.05;2.08;;;;;;;;;;5109593;28;20490;-75
2023/03/01 14:52:04;;;;;;;5.80;1.67;;;;;;;;;;5108330;28;20058;-74
2023/03/01 14:54:41;;;;;;;5.95;1.73;;;;;;;;;;5108848;28;20043;-74
2023/03/01 14:57:19;;;;;;;5.43;1.90;;;;;;;;;;5108922;28;20058;-73
2023/03/01 14:59:52;;;;;;;1.85;1.52;;;;;;;;;;5108522;28;20059;-74
2023/03/01 15:02:25;;;;;;;2.90;1.77;;;;;;;;;;5108833;28;20494;-73
2023/03/01 15:05:00;;;;;;;3.95;1.77;;;;;;;;;;5075910;28;20057;-73
2023/03/01 15:07:37;;;;;;;3.88;1.98;;;;;;;;;;5088120;28;20048;-73
2023/03/01 15:10:19;;;;;;;9.73;2.20;;;;;;;;;;5069401;28;20515;-73
2023/03/01 15:12:52;;;;;;;4.60;1.65;;;;;;;;;;5087836;28;20517;-73
2023/03/01 15:15:29;;;;;;;6.32;2.00;;;;;;;;;;5089038;28;20044;-72
2023/03/01 15:18:16;;;;;;;7.95;1.77;;;;;;;;;;5088194;28;20062;-75
2023/03/01 15:20:48;;;;;;;5.68;1.70;;;;;;;;;;5088120;28;20506;-74
2023/03/01 15:23:25;;;;;;;1.83;1.52;;;;;;;;;;5088161;28;20047;-74
2023/03/01 15:26:24;;;;;;;3.75;1.70;;;;;;;;;;5087727;28;20051;-74
2023/03/01 15:29:01;;;;;;;5.70;1.60;;;;;;;;;;5067599;28;20052;-77
2023/03/01 15:31:38;;;;;;;3.22;1.85;;;;;;;;;;5087687;28;20043;-73
2023/03/01 15:34:19;;;;;;;8.95;2.35;;;;;;;;;;5088696;28;20059;-74
2023/03/01 15:36:51;;;;;;;2.65;1.70;;;;;;;;;;5087307;28;20048;-75
2023/03/01 15:39:42;;;;;;;4.15;1.90;;;;;;;;;;5087881;28;20118;-74
2023/03/01 15:42:33;;;;;;;5.20;1.90;;;;;;;;;;5087114;28;20039;-74
2023/03/01 15:45:16;;;;;;;3.03;1.75;;;;;;;;;;5087086;28;20036;-73